• Join FlightAware (Why Join?)
  • Login
  • US Flag 
01:16AM EDT


 

Airport Tracker/Info


-or-


 

Live Flight TrackerFlight Track Log ✈ DAL105 ✈ 19-Apr-2012 ✈ KMCO - KATL

Flight Track Log - Related Links

Times and Time Zones

All times are in EDT time to prevent confusion due to time zone crossing. See the DAL105 flight status page for this flight to view local times or setup timezone preferences in your user account.

Time Position Orientation Groundspeed Altitude Reporting Facility
EDT Latitude Longitude Course Direction KTS MPH feet Rate Location/Type
06:54PM 28.4167 -81.3000 156° South 164 189 600  Level Orlando TRACON
06:54PM 28.3833 -81.2833 106° East 184 212 2,100 2,400 Climbing Orlando TRACON
06:55PM 28.3667 -81.2167 66° East 261 300 4,700 3,000 Climbing Orlando TRACON
06:56PM 28.4000 -81.1333 351° North 287 330 8,100 2,520 Climbing Orlando TRACON
06:59PM 28.5953 -81.1689 338° Northwest 331 381 13,400 2,340 Climbing Jacksonville Center
07:00PM 28.6961 -81.2144 340° North 365 420 16,200 2,640 Climbing Jacksonville Center
07:01PM 28.8011 -81.2578 338° Northwest 378 435 18,700 2,400 Climbing Jacksonville Center
07:02PM 28.9061 -81.3058 338° Northwest 398 458 21,000 2,160 Climbing Jacksonville Center
07:03PM 29.0172 -81.3564 339° North 418 481 23,100 1,980 Climbing Jacksonville Center
07:04PM 29.1283 -81.4044 339° North 423 487 25,000 1,800 Climbing Jacksonville Center
07:05PM 29.2292 -81.4483 338° Northwest 423 487 26,700 1,500 Climbing Jacksonville Center
07:06PM 29.3467 -81.5036 339° North 441 507 28,000 1,260 Climbing Jacksonville Center
07:07PM 29.4683 -81.5567 339° North 454 522 29,300 1,560 Climbing Jacksonville Center
07:08PM 29.5878 -81.6100 338° Northwest 460 529 31,200 1,740 Climbing Jacksonville Center
07:09PM 29.7075 -81.6658 339° North 460 529 32,800 1,500 Climbing Jacksonville Center
07:10PM 29.8228 -81.7172 339° North 453 521 34,300 1,080 Climbing Jacksonville Center
07:11PM 29.9422 -81.7708 340° North 453 521 35,000 300 Climbing Jacksonville Center
07:12PM 30.0594 -81.8197 338° Northwest 453 521 35,000  Level Jacksonville Center
07:13PM 30.1728 -81.8714 342° North 453 521 35,000  Level Jacksonville Center
07:14PM 30.2942 -81.9158 341° North 453 521 35,000  Level Jacksonville Center
07:15PM 30.4156 -81.9653 341° North 453 521 35,000  Level Jacksonville Center
07:16PM 30.5350 -82.0122 340° North 448 516 35,000  Level Jacksonville Center
07:17PM 30.6647 -82.0667 341° North 448 516 35,000  Level Jacksonville Center
07:18PM 30.7842 -82.1139 342° North 448 516 35,000  Level Jacksonville Center
07:19PM 30.9011 -82.1589 341° North 448 516 35,000  Level Jacksonville Center
07:20PM 31.0206 -82.2064 341° North 448 516 35,000  Level Jacksonville Center
07:21PM 31.1356 -82.2519 340° North 448 516 35,000  Level Jacksonville Center
07:22PM 31.2528 -82.3019 343° North 448 516 35,000  Level Jacksonville Center
07:23PM 31.3697 -82.3428 341° North 448 516 35,000  Level Jacksonville Center
07:24PM 31.4869 -82.3908 341° North 448 516 35,000  Level Jacksonville Center
07:26PM 31.7244 -82.4883 342° North 447 514 35,000  Level Atlanta Center
07:27PM 31.8397 -82.5331 333° Northwest 447 514 35,000  Level Atlanta Center
07:28PM 31.9511 -82.5997 322° Northwest 447 514 35,000  Level Atlanta Center
07:29PM 32.0461 -82.6886 321° Northwest 439 505 35,000 -420 Level Atlanta Center
07:30PM 32.1408 -82.7781 322° Northwest 439 505 34,200 -840 Descending Atlanta Center
07:31PM 32.2336 -82.8650 322° Northwest 434 499 33,400 -900 Descending Atlanta Center
07:32PM 32.3283 -82.9525 321° Northwest 434 499 32,400 -960 Descending Atlanta Center
07:33PM 32.4189 -83.0397 321° Northwest 427 491 31,500 -1,020 Descending Atlanta Center
07:34PM 32.5114 -83.1300 322° Northwest 427 491 30,400 -1,080 Descending Atlanta Center
07:35PM 32.6081 -83.2203 320° Northwest 432 497 29,400 -1,800 Descending Atlanta Center
07:36PM 32.7006 -83.3131 322° Northwest 432 497 26,800 -2,700 Descending Atlanta Center
07:37PM 32.7906 -83.3964 321° Northwest 427 491 24,100 -2,700 Descending Atlanta Center
07:38PM 32.8786 -83.4822 321° Northwest 417 480 21,500 -2,580 Descending Atlanta Center
07:39PM 32.9647 -83.5658 320° Northwest 411 473 19,000 -2,460 Descending Atlanta Center
07:40PM 33.0464 -83.6472 323° Northwest 390 449 16,600 -2,280 Descending Atlanta Center
07:41PM 33.1281 -83.7214 320° Northwest 375 432 14,500 -1,320 Descending Atlanta Center
07:42PM 33.2033 -83.7981 312° West 349 402 14,000 -840 Descending Atlanta Center
07:43PM 33.2639 -83.8797 306° West 321 369 12,900 -1,500 Descending Atlanta Center
07:44PM 33.3183 -83.9692 310° West 328 377 11,000 -960 Descending Atlanta Center
07:45PM 33.3767 -84.0536 309° West 328 377 11,000  Level Atlanta Center
07:46PM 33.4331 -84.1383 308° West 328 377 11,000  Level Atlanta Center
07:47PM 33.4872 -84.2206 307° West 328 377 11,000  Level Atlanta Center
07:48PM 33.5353 -84.2981 277° West 304 350 11,000 -420 Level Atlanta Center
07:49PM 33.5453 -84.3953 270° West 283 326 10,200 -1,020 Descending Atlanta Center
07:50PM 33.5450 -84.4800 272° West 283 326 9,000 -2,100 Descending Atlanta Center
07:52PM 33.5500 -84.6833 270° West 276 318 3,900 -1,740 Descending Atlanta TRACON
07:53PM 33.5500 -84.7667 360° North 244 281 3,600 -180 Descending Atlanta TRACON
07:54PM 33.6000 -84.7667 73° East 228 262 3,600  Level Atlanta TRACON
07:55PM 33.6167 -84.7000 90° East 204 235 3,600  Level Atlanta TRACON
07:56PM 33.6167 -84.6500 90° East 178 205 3,600 -180 Level Atlanta TRACON
07:57PM 33.6167 -84.5833 90° East 182 209 3,300 -600 Descending Atlanta TRACON
07:58PM 33.6167 -84.5333 90° East 180 207 2,400 -900 Descending Atlanta TRACON
07:59PM 33.6167 -84.4833 90° East 135 155 1,600 -840 Descending Atlanta TRACON